Bookmark and Share
Track history (hours):
 

MSC Regina

Last reported at 2014-Apr-16 03:18 UTC. Time now 2014-Apr-18 00:24 UTC.
Position N 39°54' W 029°28'.

Length 259 m; draft 9.6 m.

Type: Ship (hazmat cat A). MMSI: 357332000.

NotesDate/timePositionNaut miles runAvg speedWind from/ knotsBaromVisibWave heightAir tempDewpointWater temp
2014-Apr-16 03:18N 39°54' W 029°28'1419.1
2014-Apr-16 02:33N 39°50' W 029°10'1919.5
2014-Apr-16 01:34N 39°46' W 028°46'2019.8
2014-Apr-16 00:33N 39°41' W 028°21'2019.8
2014-Apr-15 23:34N 39°36' W 027°56'2019.8
2014-Apr-15 22:33N 39°31' W 027°31'2019.9
2014-Apr-15 21:32N 39°26' W 027°05'6620.0
2014-Apr-15 18:15N 39°10' W 025°43'1420.1
2014-Apr-15 17:33N 39°07' W 025°26'2219.8
2014-Apr-15 16:26N 39°01' W 024°58'93519.5
2014-Apr-13 16:30N 35°57' W 005°43'1718.0
2014-Apr-13 15:34N 36°01' W 005°22'2019.1
2014-Apr-13 14:32N 36°04' W 004°59'22620.1
2014-Apr-13 03:19N 37°31' W 000°39'1620.3
2014-Apr-13 02:31N 37°43' W 000°26'2120.5
2014-Apr-13 01:30N 38°01' W 000°11'5917.1
2014-Apr-12 22:04N 38°56' E 000°17'1322.2
2014-Apr-12 21:28N 39°05' E 000°06'51 1.4
2014-Apr-11 08:33N 39°46' E 000°46'1211.7
2014-Apr-11 07:33N 39°53' E 000°59'1212.0
2014-Apr-11 06:33N 39°59' E 001°12'1211.8
2014-Apr-11 05:33N 40°05' E 001°25'1111.2
2014-Apr-11 04:33N 40°11' E 001°38'1716.9
2014-Apr-11 03:33N 40°20' E 001°56'1919.2
2014-Apr-11 02:33N 40°30' E 002°18'2019.6
2014-Apr-11 01:33N 40°41' E 002°40'1817.8
2014-Apr-11 00:33N 40°50' E 002°60'1818.5
2014-Apr-10 23:33N 41°00' E 003°21'2218.5
2014-Apr-10 22:22N 41°11' E 003°46'1619.8
2014-Apr-10 21:34N 41°20' E 004°03'1212.1
2014-Apr-10 20:33N 41°27' E 004°17'1111.3
2014-Apr-10 19:33N 41°33' E 004°30'1110.7
2014-Apr-10 18:33N 41°38' E 004°42'1212.0
2014-Apr-10 17:32N 41°44' E 004°56'1111.0
2014-Apr-10 16:33N 41°50' E 005°08'1211.2
2014-Apr-10 15:29N 41°57' E 005°22'1110.9
2014-Apr-10 14:31N 42°02' E 005°34'2211.0
2014-Apr-10 12:33N 42°14' E 005°58'1110.4
2014-Apr-10 11:32N 42°19' E 006°10'1110.6
2014-Apr-10 10:28N 42°26' E 006°23'1110.8
2014-Apr-10 09:27N 42°31' E 006°36'2211.5
2014-Apr-10 07:32N 42°43' E 007°01'1111.3
2014-Apr-10 06:33N 42°49' E 007°14'2419.3
2014-Apr-10 05:19N 43°02' E 007°42'4319.1
2014-Apr-10 03:05N 43°24' E 008°31'1019.6
2014-Apr-10 02:33N 43°30' E 008°44'1919.4
2014-Apr-10 01:33N 43°40' E 009°06'1919.1
2014-Apr-10 00:33N 43°50' E 009°29'1918.8
2014-Apr-09 23:33N 44°00' E 009°51'6 5.8
2014-Apr-09 22:32N 44°06' E 009°51'0 0.0
2014-Apr-09 21:32N 44°06' E 009°51'0 0.0
2014-Apr-09 20:32N 44°06' E 009°51'0 0.0
2014-Apr-09 19:32N 44°06' E 009°51'0 0.0
2014-Apr-09 18:32N 44°06' E 009°51'0 0.0
2014-Apr-09 17:32N 44°06' E 009°51'0 0.0
2014-Apr-09 16:32N 44°06' E 009°51'0 0.0
2014-Apr-09 15:32N 44°06' E 009°51'0 0.0
2014-Apr-09 14:32N 44°06' E 009°51'0 0.0
2014-Apr-09 13:32N 44°06' E 009°51'0 0.0
2014-Apr-09 12:32N 44°06' E 009°51'1 1.0
2014-Apr-09 11:33N 44°05' E 009°51'4 4.0
2014-Apr-09 10:33N 44°02' E 009°54'7 6.9
2014-Apr-09 09:33N 43°55' E 009°54'1 0.9
2014-Apr-09 08:33N 43°54' E 009°55'1 0.8
2014-Apr-09 07:33N 43°54' E 009°56'1 0.7
2014-Apr-09 06:33N 43°54' E 009°56'0 0.3
2014-Apr-09 05:33N 43°53' E 009°56'3 3.4
2014-Apr-09 04:33N 43°56' E 009°59'1 0.6
2014-Apr-09 03:33N 43°56' E 009°60'2 2.2
2014-Apr-09 02:33N 43°55' E 009°57'1312.8
2014-Apr-09 01:33N 43°44' E 009°49'1716.6
2014-Apr-09 00:33N 43°28' E 009°44'2019.6
2014-Apr-08 23:32N 43°10' E 009°56'2019.5
2014-Apr-08 22:31N 42°50' E 009°59'2119.1
2014-Apr-08 21:26N 42°33' E 010°16'2019.7
2014-Apr-08 20:24N 42°19' E 010°36'15419.7
2014-Apr-08 12:33N 40°32' E 013°04'2620.3
2014-Apr-08 11:17N 40°14' E 013°29'1520.2
2014-Apr-08 10:33N 40°04' E 013°43'2620.1
2014-Apr-08 09:15N 39°46' E 014°07'1519.8
2014-Apr-08 08:29N 39°35' E 014°21'  

Dump ship's entire track history

sailing weather and tide predictions

MSC Regina — 3FGF9 — position and weather